This is the latest recevied weather packets stored in our database for station/object W3BRL. If no packets are shown the sender has not sent any weather packets the latest 10 day(s).
| Time | Temp. | Humidity | Pressure | Rain* | Wind** | Luminosity | Snow |
|---|---|---|---|---|---|---|---|
| 1777811870 | 5.56° C | 67% | 1015.1 hPa | 0 mm | - | 300 W/m² | - |
| 1777811569 | 5° C | 71% | 1015.1 hPa | 0 mm | - | 285 W/m² | - |
| 1777811264 | 5° C | 70% | 1014.9 hPa | 0 mm | - | 268 W/m² | - |
| 1777810658 | 4.44° C | 74% | 1014.9 hPa | 0 mm | - | 237 W/m² | - |
| 1777810051 | 3.89° C | 77% | 1014.8 hPa | 0 mm | - | 206 W/m² | - |
| 1777809749 | 3.33° C | 79% | 1014.9 hPa | 0 mm | - | 191 W/m² | - |
| 1777809446 | 3.33° C | 81% | 1014.8 hPa | 0 mm | - | 176 W/m² | - |
| 1777809144 | 2.78° C | 81% | 1014.8 hPa | 0 mm | - | 161 W/m² | - |
| 1777808235 | 2.22° C | 86% | 1014.5 hPa | 0 mm | - | 119 W/m² | - |
| 1777807934 | 1.67° C | 87% | 1014.6 hPa | 0 mm | - | 108 W/m² | - |
| 1777807631 | 1.67° C | 87% | 1014.5 hPa | 0 mm | - | 94 W/m² | - |
| 1777807328 | 1.11° C | 86% | 1014.6 hPa | 0 mm | - | 84 W/m² | - |
| 1777807024 | 1.67° C | 86% | 1014.4 hPa | 0 mm | - | 67 W/m² | - |
| 1777806721 | 1.11° C | 87% | 1014.4 hPa | 0 mm | - | 49 W/m² | - |
| 1777806114 | 0.56° C | 88% | 1014.4 hPa | 0 mm | - | 43 W/m² | - |
| 1777805810 | 0.56° C | 89% | 1014.2 hPa | 0 mm | - | 39 W/m² | - |
| 1777804298 | 0° C | 90% | 1014 hPa | 0 mm | - | 11 W/m² | - |
| 1777803995 | 0° C | 90% | 1014.1 hPa | 0 mm | - | 8 W/m² | - |
| 1777803691 | 0° C | 89% | 1013.8 hPa | 0 mm | - | 5 W/m² | - |
| 1777803387 | 0° C | 89% | 1013.9 hPa | 0 mm | - | 3 W/m² | - |
| 1777803086 | 0° C | 89% | 1013.9 hPa | 0 mm | - | 2 W/m² | - |
| 1777802782 | 0° C | 89% | 1013.7 hPa | 0 mm | - | 1 W/m² | - |
| 1777802480 | 0° C | 89% | 1013.6 hPa | 0 mm | - | 0 W/m² | - |
| 1777802178 | 0° C | 88% | 1013.8 hPa | 0 mm | - | 0 W/m² | - |
| 1777801876 | 0° C | 87% | 1013.7 hPa | 0 mm | - | 0 W/m² | - |
* Rain latest hour (hover to see other rain measurements)
** Current wind speed in m/s (hover to see current wind gust speed)